createdAt,value
2018-11-23T00:00:32.114Z,21.27
2018-11-23T00:03:13.114Z,21.00
2018-11-23T00:05:54.495Z,22.35
2018-11-23T00:08:35.301Z,20.65
2018-11-23T00:11:16.248Z,20.08
2018-11-23T00:13:57.182Z,20.43
2018-11-23T00:16:38.200Z,20.35
2018-11-23T00:19:19.812Z,19.75
2018-11-23T00:21:59.292Z,19.65
2018-11-23T00:24:48.188Z,21.42
2018-11-23T00:27:36.636Z,22.00
2018-11-23T00:30:26.235Z,21.45
2018-11-23T00:33:14.587Z,21.05
2018-11-23T00:38:55.227Z,22.30
2018-11-23T01:00:10.820Z,21.23
2018-11-23T01:02:39.620Z,21.23
2018-11-23T01:05:28.277Z,20.52
2018-11-23T01:11:12.649Z,20.50
2018-11-23T01:14:01.004Z,21.50
2018-11-23T01:16:48.981Z,22.00
2018-11-23T01:19:37.328Z,20.25
2018-11-23T01:22:25.703Z,21.10
2018-11-23T01:25:14.792Z,20.57
2018-11-23T01:28:03.185Z,20.60
2018-11-23T01:30:51.576Z,19.32
2018-11-23T01:33:39.921Z,20.52
2018-11-23T01:36:51.857Z,20.50
2018-11-23T01:42:29.232Z,20.12
2018-11-23T01:45:17.796Z,19.82
2018-11-23T01:48:26.053Z,19.77
2018-11-23T01:51:14.736Z,20.77
2018-11-23T01:54:22.910Z,21.35
2018-11-23T02:00:26.444Z,20.52
2018-11-23T02:03:14.837Z,20.82
2018-11-23T02:06:03.460Z,18.60
2018-11-23T02:08:52.090Z,21.60
2018-11-23T02:11:40.688Z,20.52
2018-11-23T02:14:29.300Z,19.57
2018-11-23T02:20:14.384Z,19.73
2018-11-23T02:23:02.772Z,20.12
2018-11-23T02:25:51.420Z,20.00
2018-11-23T02:28:39.796Z,18.85
2018-11-23T02:31:46.984Z,20.05
2018-11-23T02:37:31.376Z,20.97
2018-11-23T02:40:20.690Z,20.60
2018-11-23T02:43:09.281Z,19.80
2018-11-23T02:45:58.018Z,20.75
2018-11-23T02:48:46.724Z,20.32
2018-11-23T02:51:35.799Z,21.07
2018-11-23T02:54:24.157Z,19.80
2018-11-23T02:57:12.537Z,18.77
2018-11-23T03:00:01.244Z,20.57
2018-11-23T03:03:09.562Z,21.68
2018-11-23T03:05:57.941Z,18.82
2018-11-23T03:08:46.633Z,18.82
2018-11-23T03:14:36.824Z,20.10
2018-11-23T03:17:25.433Z,18.82
2018-11-23T03:20:32.792Z,20.82
2018-11-23T03:23:21.157Z,21.73
2018-11-23T03:26:09.761Z,19.60
2018-11-23T03:31:54.215Z,18.77
2018-11-23T03:34:42.784Z,19.87
2018-11-23T03:37:31.440Z,18.48
2018-11-23T03:40:20.124Z,18.62
2018-11-23T03:43:08.820Z,18.65
2018-11-23T03:45:57.219Z,19.87
2018-11-23T03:48:45.872Z,19.32
2018-11-23T03:51:34.508Z,19.35
2018-11-23T03:54:22.904Z,19.15
2018-11-23T03:57:11.523Z,19.32
2018-11-23T04:00:00.457Z,20.77
2018-11-23T04:02:49.391Z,17.77
2018-11-23T04:05:38.064Z,19.05
2018-11-23T04:08:26.435Z,20.45
2018-11-23T04:14:17.337Z,19.23
2018-11-23T04:17:05.863Z,19.67
2018-11-23T04:19:54.506Z,20.55
2018-11-23T04:23:02.813Z,19.23
2018-11-23T04:25:51.168Z,19.70
2018-11-23T04:31:41.607Z,21.17
2018-11-23T04:34:30.460Z,19.80
2018-11-23T04:37:19.142Z,18.60
2018-11-23T04:40:08.609Z,18.62
2018-11-23T04:42:57.213Z,19.82
2018-11-23T04:45:45.820Z,20.50
2018-11-23T04:48:34.665Z,20.77
2018-11-23T04:51:23.308Z,19.65
2018-11-23T04:57:19.811Z,19.50
2018-11-23T05:00:12.604Z,19.35
2018-11-23T05:03:01.216Z,20.05
2018-11-23T05:05:49.559Z,20.68
2018-11-23T05:08:40.205Z,19.70
2018-11-23T05:11:28.588Z,19.65
2018-11-23T05:14:16.991Z,19.77
2018-11-23T05:17:05.616Z,19.95
2018-11-23T05:19:54.228Z,20.95
2018-11-23T05:22:42.868Z,19.30
2018-11-23T05:28:27.027Z,20.68
2018-11-23T05:31:15.631Z,21.20
2018-11-23T05:34:04.033Z,21.23
2018-11-23T05:36:52.392Z,22.05
2018-11-23T05:39:41.008Z,22.17
2018-11-23T05:42:29.380Z,22.90
2018-11-23T05:45:19.320Z,21.75
2018-11-23T05:48:08.415Z,22.67
2018-11-23T05:50:56.788Z,21.15
2018-11-23T05:53:45.153Z,21.10
2018-11-23T05:56:33.773Z,22.40
2018-11-23T05:59:22.144Z,23.18
2018-11-23T06:02:10.740Z,23.20
2018-11-23T06:04:59.408Z,22.77
2018-11-23T06:07:48.496Z,23.80
2018-11-23T06:10:37.341Z,23.98
2018-11-23T06:13:26.236Z,24.10
2018-11-23T06:16:14.616Z,24.30
2018-11-23T06:19:03.014Z,22.25
2018-11-23T06:24:44.364Z,22.45
2018-11-23T06:27:33.275Z,22.48
2018-11-23T06:30:21.901Z,23.12
2018-11-23T06:33:29.332Z,22.20
2018-11-23T06:36:17.972Z,22.37
2018-11-23T06:39:27.958Z,24.70
2018-11-23T06:42:16.320Z,27.15
2018-11-23T06:45:04.668Z,26.52
2018-11-23T06:47:53.288Z,24.25
2018-11-23T06:50:42.112Z,23.67
2018-11-23T06:53:30.710Z,24.10
2018-11-23T06:56:19.081Z,24.47
2018-11-23T06:59:09.125Z,26.60
2018-11-23T07:04:39.341Z,21.27
2018-11-23T07:07:22.352Z,21.23
2018-11-23T07:12:46.825Z,21.25
2018-11-23T07:18:11.717Z,22.95
2018-11-23T07:23:44.446Z,23.83
2018-11-23T07:29:11.237Z,25.37
2018-11-23T07:34:41.006Z,30.27
2018-11-23T07:37:22.182Z,27.55
2018-11-23T07:42:45.689Z,25.70
2018-11-23T07:45:27.632Z,28.25
2018-11-23T07:48:09.600Z,25.40
2018-11-23T07:50:50.785Z,26.65
2018-11-23T07:53:32.347Z,26.15
2018-11-23T07:56:13.800Z,25.62
2018-11-23T07:58:55.120Z,24.23
2018-11-23T08:04:26.168Z,24.65
2018-11-23T08:07:07.844Z,25.27
2018-11-23T08:09:49.328Z,26.07
2018-11-23T08:15:25.798Z,25.90
2018-11-23T08:18:06.313Z,25.32
2018-11-23T08:20:47.789Z,25.85
2018-11-23T08:23:29.106Z,25.72
2018-11-23T08:26:10.444Z,25.62
2018-11-23T08:28:51.756Z,24.98
2018-11-23T08:34:14.497Z,25.72
2018-11-23T08:36:55.348Z,25.37
2018-11-23T08:39:36.013Z,25.12
2018-11-23T08:42:17.088Z,26.73
2018-11-23T08:44:58.665Z,26.23
2018-11-23T08:47:40.361Z,26.97
2018-11-23T08:50:23.092Z,26.60
2018-11-23T08:53:04.589Z,28.45
2018-11-23T08:55:46.020Z,27.52
2018-11-23T08:58:27.445Z,26.87
2018-11-23T09:01:08.068Z,28.00
2018-11-23T09:03:49.492Z,26.77
2018-11-23T09:06:30.595Z,26.70
2018-11-23T09:09:12.279Z,28.47
2018-11-23T09:11:53.896Z,28.42
2018-11-23T09:14:35.976Z,31.07
2018-11-23T09:17:16.995Z,28.45
2018-11-23T09:19:57.749Z,29.55
2018-11-23T09:22:38.676Z,28.70
2018-11-23T09:25:20.717Z,28.38
2018-11-23T09:28:02.144Z,26.25
2018-11-23T09:30:43.408Z,26.17
2018-11-23T09:33:24.764Z,27.60
2018-11-23T09:36:05.865Z,27.90
2018-11-23T09:47:34.077Z,27.93
2018-11-23T09:53:11.181Z,26.40
2018-11-23T09:55:52.464Z,24.35
2018-11-23T10:01:24.458Z,24.70
2018-11-23T10:06:59.153Z,24.30
2018-11-23T10:09:41.375Z,25.68
2018-11-23T10:15:12.456Z,23.77
2018-11-23T10:17:54.701Z,23.98
2018-11-23T10:23:27.481Z,24.87
2018-11-23T10:31:48.407Z,24.20
2018-11-23T10:34:30.317Z,25.05
2018-11-23T10:42:48.042Z,24.57
2018-11-23T10:45:30.356Z,23.92
2018-11-23T10:51:03.145Z,24.55
2018-11-23T11:04:43.973Z,24.32
2018-11-23T11:07:12.071Z,22.45
2018-11-23T11:09:40.162Z,22.32
2018-11-23T11:12:09.267Z,21.48
2018-11-23T11:14:37.469Z,21.45
2018-11-23T11:17:05.641Z,21.12
2018-11-23T11:19:33.743Z,21.62
2018-11-23T11:22:01.912Z,21.12
2018-11-23T11:24:30.008Z,20.82
2018-11-23T11:26:58.179Z,20.70
2018-11-23T11:29:26.255Z,25.12
2018-11-23T11:31:54.346Z,33.83
2018-11-23T11:34:22.439Z,30.55
2018-11-23T11:36:50.622Z,21.40
2018-11-23T11:39:18.715Z,19.77
2018-11-23T11:41:46.890Z,19.98
2018-11-23T11:44:14.982Z,20.02
2018-11-23T11:46:43.161Z,19.37
2018-11-23T11:49:11.256Z,19.92
2018-11-23T11:51:39.455Z,18.57
2018-11-23T11:54:07.627Z,19.23
2018-11-23T11:56:35.802Z,18.75
2018-11-23T11:59:03.895Z,19.32
2018-11-23T12:01:31.984Z,17.48
2018-11-23T12:04:00.078Z,18.35
2018-11-23T12:06:28.149Z,18.65
2018-11-23T12:08:56.231Z,17.60
2018-11-23T12:11:24.315Z,17.98
2018-11-23T12:13:52.408Z,17.60
2018-11-23T12:16:20.589Z,18.37
2018-11-23T12:18:48.679Z,17.60
2018-11-23T12:21:16.868Z,17.98
2018-11-23T12:23:45.291Z,17.42
2018-11-23T12:26:13.399Z,17.15
2018-11-23T12:28:41.575Z,17.23
2018-11-23T12:31:10.051Z,16.90
2018-11-23T12:33:38.219Z,17.82
2018-11-23T12:36:06.399Z,16.32
2018-11-23T12:38:34.582Z,24.52
2018-11-23T12:41:02.791Z,24.75
2018-11-23T12:43:30.955Z,24.80
2018-11-23T12:45:59.153Z,16.75
2018-11-23T12:48:27.332Z,16.90
2018-11-23T12:50:55.517Z,15.65
2018-11-23T12:53:23.712Z,15.58
2018-11-23T12:55:51.815Z,16.00
2018-11-23T12:58:19.992Z,14.55
2018-11-23T13:00:48.184Z,15.18
2018-11-23T13:03:16.543Z,14.95
2018-11-23T13:05:44.654Z,14.47
2018-11-23T13:08:12.735Z,14.25
2018-11-23T13:10:40.954Z,15.28
2018-11-23T13:13:09.107Z,15.40
2018-11-23T13:15:37.305Z,15.10
2018-11-23T13:18:05.707Z,14.78
2018-11-23T13:20:33.870Z,15.05
2018-11-23T13:23:02.056Z,15.23
2018-11-23T13:25:31.704Z,13.72
2018-11-23T13:27:59.890Z,16.30
2018-11-23T13:30:31.355Z,16.32
2018-11-23T13:32:59.513Z,13.98
2018-11-23T13:35:27.711Z,13.25
2018-11-23T13:37:55.910Z,12.98
2018-11-23T13:40:25.430Z,12.45
2018-11-23T13:48:20.095Z,11.95
2018-11-23T13:50:45.534Z,11.88
2018-11-23T13:53:13.690Z,12.85
2018-11-23T13:55:41.878Z,12.20
2018-11-23T13:58:10.059Z,12.33
2018-11-23T14:00:38.267Z,13.13
2018-11-23T14:03:06.443Z,14.40
2018-11-23T14:05:34.683Z,13.25
2018-11-23T14:08:03.443Z,13.68
2018-11-23T14:10:31.919Z,13.08
2018-11-23T14:13:00.328Z,12.93
2018-11-23T14:15:29.954Z,12.55
2018-11-23T14:17:58.951Z,13.95
2018-11-23T14:20:27.769Z,13.25
2018-11-23T14:22:56.026Z,12.82
2018-11-23T14:25:28.383Z,14.05
2018-11-23T14:27:56.964Z,14.18
2018-11-23T14:30:27.474Z,13.95
2018-11-23T14:32:55.969Z,13.62
2018-11-23T14:35:28.350Z,14.33
2018-11-23T14:37:57.433Z,15.30
2018-11-23T14:40:25.660Z,13.98
2018-11-23T14:42:54.236Z,15.00
2018-11-23T14:45:24.891Z,15.18
2018-11-23T14:47:54.107Z,13.88
2018-11-23T14:50:23.636Z,14.70
2018-11-23T14:52:52.823Z,14.58
2018-11-23T14:55:21.172Z,14.93
2018-11-23T14:57:49.275Z,15.48
2018-11-23T15:00:20.884Z,14.85
2018-11-23T15:02:50.182Z,14.53
2018-11-23T15:05:18.686Z,14.87
2018-11-23T15:07:47.066Z,14.75
2018-11-23T15:10:16.548Z,14.55
2018-11-23T15:12:45.467Z,15.65
2018-11-23T15:15:16.885Z,15.10
2018-11-23T15:17:46.271Z,15.43
2018-11-23T15:20:17.118Z,15.18
2018-11-23T15:22:45.959Z,15.68
2018-11-23T15:25:14.076Z,15.25
2018-11-23T15:27:42.958Z,15.08
2018-11-23T15:30:14.008Z,15.88
2018-11-23T15:32:42.552Z,14.38
2018-11-23T15:35:10.855Z,15.48
2018-11-23T15:37:39.003Z,15.88
2018-11-23T15:40:13.063Z,14.65
2018-11-23T15:42:41.217Z,15.58
2018-11-23T15:45:12.383Z,15.83
2018-11-23T15:47:40.556Z,15.60
2018-11-23T15:50:12.079Z,15.63
2018-11-23T15:52:40.211Z,15.05
2018-11-23T15:55:11.507Z,15.48
2018-11-23T15:57:39.902Z,15.90
2018-11-23T16:00:17.415Z,16.07
2018-11-23T16:02:46.398Z,16.07
2018-11-23T16:05:14.776Z,15.75
2018-11-23T16:07:43.018Z,15.98
2018-11-23T16:10:16.902Z,15.60
2018-11-23T16:12:46.718Z,16.42
2018-11-23T16:15:14.884Z,16.67
2018-11-23T16:17:43.100Z,17.12
2018-11-23T16:20:15.151Z,17.73
2018-11-23T16:22:44.498Z,19.07
2018-11-23T16:25:12.899Z,22.75
2018-11-23T16:27:41.887Z,18.50
2018-11-23T16:30:17.251Z,18.02
2018-11-23T16:32:46.554Z,17.82
2018-11-23T16:35:16.495Z,17.57
2018-11-23T16:37:44.856Z,16.15
2018-11-23T16:40:14.403Z,17.77
2018-11-23T16:42:42.551Z,17.62
2018-11-23T16:45:16.454Z,17.85
2018-11-23T16:47:45.004Z,18.30
2018-11-23T16:50:13.503Z,19.37
2018-11-23T16:52:42.699Z,17.90
2018-11-23T16:55:12.143Z,18.02
2018-11-23T16:57:41.531Z,19.60
2018-11-23T17:00:21.515Z,19.00
2018-11-23T17:02:49.655Z,18.17
2018-11-23T17:05:19.307Z,18.50
2018-11-23T17:07:47.490Z,19.45
2018-11-23T17:10:16.711Z,19.82
2018-11-23T17:12:45.127Z,21.48
2018-11-23T17:15:14.615Z,19.42
2018-11-23T17:17:43.023Z,18.70
2018-11-23T17:20:14.243Z,19.65
2018-11-23T17:22:43.687Z,18.87
2018-11-23T17:25:13.333Z,18.87
2018-11-23T17:27:41.804Z,19.77
2018-11-23T17:30:12.031Z,20.17
2018-11-23T17:32:40.530Z,19.42
2018-11-23T17:35:09.352Z,18.90
2018-11-23T17:37:38.014Z,18.60
2018-11-23T17:40:07.807Z,18.77
2018-11-23T17:42:35.933Z,18.90
2018-11-23T17:45:05.320Z,18.42
2018-11-23T17:47:33.411Z,18.57
2018-11-23T17:50:01.602Z,20.00
2018-11-23T17:52:30.736Z,19.65
2018-11-23T17:54:58.955Z,18.95
2018-11-23T17:57:27.139Z,19.23
2018-11-23T17:59:55.275Z,19.48
2018-11-23T18:02:25.639Z,19.57
2018-11-23T18:04:53.794Z,19.25
2018-11-23T18:07:22.012Z,18.75
2018-11-23T18:09:50.183Z,17.90
2018-11-23T18:12:18.367Z,17.57
2018-11-23T18:14:46.587Z,17.75
2018-11-23T18:17:15.375Z,18.02
2018-11-23T18:19:43.459Z,19.05
2018-11-23T18:22:11.631Z,17.75
2018-11-23T18:24:39.800Z,17.90
2018-11-23T18:27:08.015Z,16.32
2018-11-23T18:29:36.190Z,17.52
2018-11-23T18:32:04.708Z,17.82
2018-11-23T18:34:32.860Z,17.70
2018-11-23T18:37:01.063Z,18.25
2018-11-23T18:39:29.243Z,17.48
2018-11-23T18:41:57.521Z,18.17
2018-11-23T18:44:26.490Z,18.27
2018-11-23T18:46:54.611Z,17.73
2018-11-23T18:49:22.808Z,18.10
2018-11-23T18:51:50.991Z,17.92
2018-11-23T18:54:19.179Z,18.85
2018-11-23T18:56:47.361Z,16.97
2018-11-23T18:59:15.548Z,19.37
2018-11-23T19:01:43.738Z,18.42
2018-11-23T19:04:11.934Z,19.00
2018-11-23T19:06:40.121Z,19.10
2018-11-23T19:09:09.607Z,20.08
2018-11-23T19:11:37.739Z,18.60
2018-11-23T19:14:06.383Z,18.52
2018-11-23T19:16:34.506Z,18.12
2018-11-23T19:19:02.683Z,18.20
2018-11-23T19:21:30.870Z,17.30
2018-11-23T19:23:59.083Z,18.12
2018-11-23T19:26:27.251Z,19.00
2018-11-23T19:28:55.426Z,19.65
2018-11-23T19:31:23.619Z,18.37
2018-11-23T19:33:51.799Z,17.82
2018-11-23T19:36:19.995Z,17.45
2018-11-23T19:38:48.191Z,18.45
2018-11-23T19:41:16.375Z,17.65
2018-11-23T19:43:44.543Z,16.73
2018-11-23T19:46:12.736Z,17.10
2018-11-23T19:48:40.920Z,17.17
2018-11-23T19:51:09.127Z,17.90
2018-11-23T19:53:37.299Z,18.42
2018-11-23T19:56:05.604Z,17.77
2018-11-23T19:58:33.779Z,18.20
2018-11-23T20:01:01.952Z,17.75
2018-11-23T20:03:30.061Z,17.00
2018-11-23T20:05:58.235Z,17.82
2018-11-23T20:08:26.422Z,19.32
2018-11-23T20:10:54.599Z,17.55
2018-11-23T20:13:22.800Z,16.95
2018-11-23T20:15:50.991Z,18.87
2018-11-23T20:18:19.195Z,18.80
2018-11-23T20:20:47.359Z,19.12
2018-11-23T20:23:15.547Z,19.75
2018-11-23T20:25:43.727Z,18.82
2018-11-23T20:28:11.931Z,19.65
2018-11-23T20:30:42.542Z,20.10
2018-11-23T20:33:08.363Z,20.02
2018-11-23T20:35:36.575Z,20.17
2018-11-23T20:38:04.749Z,19.65
2018-11-23T20:40:32.950Z,20.60
2018-11-23T20:43:01.043Z,20.10
2018-11-23T20:45:29.226Z,19.85
2018-11-23T20:47:57.414Z,20.60
2018-11-23T20:50:25.608Z,21.55
2018-11-23T20:52:53.778Z,21.62
2018-11-23T20:55:22.442Z,20.02
2018-11-23T20:57:50.601Z,22.13
2018-11-23T21:00:19.641Z,21.10
2018-11-23T21:02:48.908Z,22.20
2018-11-23T21:05:18.167Z,22.17
2018-11-23T21:07:46.290Z,20.52
2018-11-23T21:10:20.684Z,21.00
2018-11-23T21:12:48.027Z,22.15
2018-11-23T21:15:31.145Z,23.02
2018-11-23T21:18:01.726Z,21.23
2018-11-23T21:20:29.630Z,20.75
2018-11-23T21:22:57.746Z,21.15
2018-11-23T21:25:25.947Z,20.30
2018-11-23T21:27:54.073Z,21.70
2018-11-23T21:30:23.075Z,20.85
2018-11-23T21:32:51.983Z,21.60
2018-11-23T21:35:20.135Z,21.30
2018-11-23T21:37:48.281Z,19.50
2018-11-23T21:40:16.798Z,20.40
2018-11-23T21:42:45.001Z,20.37
2018-11-23T21:45:14.042Z,23.25
2018-11-23T21:47:42.163Z,25.10
2018-11-23T21:50:14.307Z,41.18
2018-11-23T21:52:42.453Z,32.28
2018-11-23T21:55:13.644Z,21.73
2018-11-23T21:57:41.799Z,20.23
2018-11-23T22:00:12.186Z,19.17
2018-11-23T22:02:40.287Z,20.92
2018-11-23T22:05:08.784Z,20.37
2018-11-23T22:07:36.990Z,19.77
2018-11-23T22:10:08.211Z,19.55
2018-11-23T22:12:36.298Z,19.80
2018-11-23T22:15:07.182Z,20.20
2018-11-23T22:17:35.483Z,19.82
2018-11-23T22:20:04.539Z,19.82
2018-11-23T22:22:32.635Z,19.82
2018-11-23T22:25:00.735Z,19.17
2018-11-23T22:27:28.906Z,18.55
2018-11-23T22:29:57.015Z,19.25
2018-11-23T22:32:25.181Z,20.08
2018-11-23T22:34:53.372Z,18.15
2018-11-23T22:37:21.551Z,19.23
2018-11-23T22:39:49.645Z,19.00
2018-11-23T22:42:17.839Z,19.23
2018-11-23T22:44:46.124Z,18.32
2018-11-23T22:47:14.188Z,19.02
2018-11-23T22:49:42.302Z,18.42
2018-11-23T22:52:10.466Z,19.10
2018-11-23T22:54:38.552Z,18.30
2018-11-23T22:57:11.557Z,18.75
2018-11-23T22:59:34.919Z,18.37
2018-11-23T23:02:03.022Z,17.37
2018-11-23T23:04:31.332Z,18.45
2018-11-23T23:06:59.504Z,18.10
2018-11-23T23:09:27.676Z,17.48
2018-11-23T23:11:55.864Z,17.82
2018-11-23T23:14:24.038Z,17.05
2018-11-23T23:16:52.130Z,17.45
2018-11-23T23:19:20.224Z,17.77
2018-11-23T23:21:48.412Z,18.50
2018-11-23T23:24:16.597Z,16.62
2018-11-23T23:26:44.976Z,18.00
2018-11-23T23:29:13.062Z,17.35
2018-11-23T23:31:41.160Z,18.62
2018-11-23T23:34:09.339Z,16.93
2018-11-23T23:36:37.431Z,17.40
2018-11-23T23:39:07.640Z,16.17
2018-11-23T23:41:35.767Z,16.65
2018-11-23T23:44:03.967Z,17.00
2018-11-23T23:46:32.123Z,16.60
2018-11-23T23:49:00.212Z,18.20
2018-11-23T23:51:28.391Z,16.62
2018-11-23T23:53:56.624Z,17.77
2018-11-23T23:56:24.809Z,17.20
2018-11-23T23:58:52.963Z,17.52
